createdAt,value
2022-09-21T00:00:44.779Z,3.35
2022-09-21T00:03:11.856Z,6.88
2022-09-21T00:05:38.533Z,6.38
2022-09-21T00:08:06.839Z,3.47
2022-09-21T00:10:34.029Z,3.15
2022-09-21T00:13:03.167Z,5.50
2022-09-21T00:15:31.398Z,5.32
2022-09-21T00:17:59.545Z,2.60
2022-09-21T00:20:27.946Z,4.65
2022-09-21T00:22:54.709Z,6.25
2022-09-21T00:25:21.524Z,7.45
2022-09-21T00:27:51.404Z,3.85
2022-09-21T00:30:18.822Z,4.15
2022-09-21T00:32:45.494Z,4.60
2022-09-21T00:35:12.040Z,6.32
2022-09-21T00:37:38.615Z,11.98
2022-09-21T00:40:05.643Z,18.05
2022-09-21T00:42:34.446Z,14.93
2022-09-21T00:45:01.534Z,17.65
2022-09-21T00:47:46.202Z,14.27
2022-09-21T00:50:17.596Z,10.73
2022-09-21T00:52:49.484Z,11.13
2022-09-21T00:55:22.851Z,9.80
2022-09-21T00:57:55.065Z,12.77
2022-09-21T01:00:21.740Z,11.40
2022-09-21T01:02:48.563Z,10.60
2022-09-21T01:05:15.160Z,24.52
2022-09-21T01:07:46.017Z,14.77
2022-09-21T01:10:17.751Z,15.05
2022-09-21T01:12:59.697Z,14.88
2022-09-21T01:15:39.436Z,14.55
2022-09-21T01:18:28.042Z,15.70
2022-09-21T01:21:16.031Z,16.05
2022-09-21T01:23:57.824Z,16.35
2022-09-21T01:26:39.600Z,13.30
2022-09-21T01:29:27.925Z,13.68
2022-09-21T01:32:29.628Z,12.25
2022-09-21T01:35:12.901Z,12.25
2022-09-21T01:37:45.433Z,10.45
2022-09-21T01:40:22.440Z,11.15
2022-09-21T01:42:51.366Z,9.68
2022-09-21T01:45:26.540Z,7.75
2022-09-21T01:47:56.688Z,5.78
2022-09-21T01:50:26.074Z,8.55
2022-09-21T01:52:59.392Z,19.75
2022-09-21T01:55:30.774Z,8.63
2022-09-21T01:58:24.558Z,6.93
2022-09-21T02:00:55.412Z,5.82
2022-09-21T02:03:38.362Z,6.10
2022-09-21T02:06:06.439Z,8.20
2022-09-21T02:08:33.520Z,4.20
2022-09-21T02:11:03.105Z,5.20
2022-09-21T02:13:34.316Z,9.32
2022-09-21T02:16:21.294Z,4.90
2022-09-21T02:19:03.587Z,3.13
2022-09-21T02:21:41.295Z,4.65
2022-09-21T02:24:20.929Z,3.10
2022-09-21T02:26:58.793Z,5.65
2022-09-21T02:29:33.492Z,3.38
2022-09-21T02:32:09.588Z,7.10
2022-09-21T02:34:46.235Z,4.28
2022-09-21T02:37:19.854Z,6.88
2022-09-21T02:40:04.186Z,7.03
2022-09-21T02:42:35.969Z,3.50
2022-09-21T02:45:07.348Z,11.27
2022-09-21T02:47:43.698Z,6.38
2022-09-21T02:52:42.853Z,7.03
2022-09-21T02:55:11.147Z,7.32
2022-09-21T02:57:38.529Z,5.35
2022-09-21T03:00:06.587Z,6.38
2022-09-21T03:02:43.202Z,8.93
2022-09-21T03:05:11.803Z,5.13
2022-09-21T03:07:38.390Z,5.40
2022-09-21T03:10:08.212Z,2.85
2022-09-21T03:12:34.936Z,5.22
2022-09-21T03:15:01.634Z,3.65
2022-09-21T03:17:28.221Z,5.00
2022-09-21T03:19:55.166Z,6.63
2022-09-21T03:22:22.853Z,3.20
2022-09-21T03:24:50.088Z,2.83
2022-09-21T03:27:20.453Z,3.90
2022-09-21T03:29:47.584Z,5.03
2022-09-21T03:32:16.552Z,5.80
2022-09-21T03:34:43.302Z,3.03
2022-09-21T03:37:10.177Z,7.13
2022-09-21T03:39:36.859Z,4.80
2022-09-21T03:42:04.215Z,6.47
2022-09-21T03:44:30.874Z,3.00
2022-09-21T03:46:58.231Z,6.10
2022-09-21T03:49:25.178Z,5.00
2022-09-21T03:51:51.751Z,7.70
2022-09-21T03:54:18.300Z,6.20
2022-09-21T03:56:45.017Z,6.03
2022-09-21T03:59:14.402Z,7.25
2022-09-21T04:01:41.500Z,4.20
2022-09-21T04:04:08.225Z,3.70
2022-09-21T04:06:35.168Z,6.25
2022-09-21T04:09:02.584Z,6.38
2022-09-21T04:11:30.166Z,4.82
2022-09-21T04:13:57.105Z,4.95
2022-09-21T04:16:25.525Z,3.67
2022-09-21T04:18:52.131Z,6.95
2022-09-21T04:21:19.653Z,4.05
2022-09-21T04:23:46.292Z,2.55
2022-09-21T04:26:23.066Z,5.20
2022-09-21T04:28:50.443Z,4.45
2022-09-21T04:31:17.147Z,6.78
2022-09-21T04:33:43.703Z,5.72
2022-09-21T04:36:10.420Z,5.05
2022-09-21T04:38:36.965Z,8.18
2022-09-21T04:41:03.806Z,6.30
2022-09-21T04:43:30.486Z,6.00
2022-09-21T04:45:57.141Z,5.20
2022-09-21T04:48:24.137Z,6.32
2022-09-21T04:50:51.139Z,7.82
2022-09-21T04:53:17.958Z,4.82
2022-09-21T04:55:46.037Z,7.53
2022-09-21T04:58:12.746Z,3.35
2022-09-21T05:00:39.325Z,4.75
2022-09-21T05:03:05.951Z,6.43
2022-09-21T05:05:33.198Z,11.77
2022-09-21T05:07:59.819Z,5.25
2022-09-21T05:10:26.663Z,5.63
2022-09-21T05:12:53.289Z,5.40
2022-09-21T05:15:20.494Z,11.02
2022-09-21T05:17:47.115Z,5.13
2022-09-21T05:20:16.906Z,4.95
2022-09-21T05:22:43.506Z,5.63
2022-09-21T05:25:10.447Z,3.28
2022-09-21T05:27:37.069Z,4.35
2022-09-21T05:30:05.246Z,4.57
2022-09-21T05:32:57.174Z,12.30
2022-09-21T05:35:39.082Z,4.22
2022-09-21T05:38:13.881Z,5.45
2022-09-21T05:40:40.708Z,8.43
2022-09-21T05:43:09.444Z,4.60
2022-09-21T05:45:41.965Z,5.28
2022-09-21T05:48:10.236Z,4.93
2022-09-21T05:50:53.143Z,5.50
2022-09-21T05:53:19.673Z,5.22
2022-09-21T05:56:09.845Z,5.60
2022-09-21T05:58:47.106Z,5.05
2022-09-21T06:01:29.386Z,5.60
2022-09-21T06:03:57.185Z,5.70
2022-09-21T06:06:23.911Z,7.07
2022-09-21T06:08:51.004Z,9.32
2022-09-21T06:11:17.892Z,5.70
2022-09-21T06:13:44.424Z,8.85
2022-09-21T06:16:11.362Z,5.30
2022-09-21T06:18:40.222Z,4.60
2022-09-21T06:21:07.839Z,6.95
2022-09-21T06:23:35.236Z,4.53
2022-09-21T06:26:01.937Z,8.25
2022-09-21T06:28:29.719Z,12.45
2022-09-21T06:30:58.065Z,7.70
2022-09-21T06:33:25.172Z,5.60
2022-09-21T06:36:00.430Z,8.43
2022-09-21T06:38:28.208Z,6.78
2022-09-21T06:40:55.340Z,13.38
2022-09-21T06:43:22.296Z,16.58
2022-09-21T06:45:58.428Z,8.13
2022-09-21T06:48:26.871Z,5.65
2022-09-21T06:50:59.580Z,7.78
2022-09-21T06:53:27.463Z,12.38
2022-09-21T06:55:54.035Z,13.98
2022-09-21T06:58:20.656Z,17.13
2022-09-21T07:00:47.448Z,12.77
2022-09-21T07:03:14.215Z,17.50
2022-09-21T07:05:40.784Z,16.10
2022-09-21T07:10:05.133Z,13.43
2022-09-21T07:10:54.010Z,13.70
2022-09-21T07:13:20.570Z,15.98
2022-09-21T07:15:50.269Z,10.55
2022-09-21T07:18:19.824Z,12.63
2022-09-21T07:20:48.479Z,9.65
2022-09-21T07:23:17.971Z,10.40
2022-09-21T07:25:49.239Z,7.15
2022-09-21T07:28:16.574Z,8.48
2022-09-21T07:30:43.288Z,8.73
2022-09-21T07:33:09.918Z,9.15
2022-09-21T07:35:36.568Z,8.10
2022-09-21T07:38:06.326Z,10.43
2022-09-21T07:40:34.342Z,8.55
2022-09-21T07:43:02.901Z,6.72
2022-09-21T07:45:31.076Z,7.68
2022-09-21T07:48:06.447Z,6.75
2022-09-21T07:50:34.204Z,13.20
2022-09-21T07:53:02.169Z,12.13
2022-09-21T07:55:29.488Z,13.05
2022-09-21T07:58:11.383Z,9.05
2022-09-21T08:00:38.309Z,11.95
2022-09-21T08:03:06.228Z,16.80
2022-09-21T08:05:33.371Z,10.52
2022-09-21T08:08:00.199Z,16.23
2022-09-21T08:10:29.493Z,21.60
2022-09-21T08:12:57.456Z,23.75
2022-09-21T08:15:47.049Z,19.77
2022-09-21T08:20:37.361Z,17.48
2022-09-21T08:23:04.218Z,17.38
2022-09-21T08:25:30.844Z,20.35
2022-09-21T08:27:58.475Z,26.35
2022-09-21T08:30:27.947Z,18.58
2022-09-21T08:32:55.355Z,34.30
2022-09-21T08:35:21.917Z,23.85
2022-09-21T08:37:51.050Z,21.33
2022-09-21T08:40:19.779Z,22.98
2022-09-21T08:43:03.327Z,23.05
2022-09-21T08:45:35.758Z,18.95
2022-09-21T08:48:06.384Z,19.92
2022-09-21T08:50:39.889Z,20.95
2022-09-21T08:53:13.436Z,19.42
2022-09-21T08:55:40.049Z,18.05
2022-09-21T08:58:20.368Z,21.85
2022-09-21T09:00:47.877Z,20.77
2022-09-21T09:03:41.539Z,17.02
2022-09-21T09:06:21.465Z,19.58
2022-09-21T09:09:04.089Z,13.40
2022-09-21T09:11:52.618Z,14.38
2022-09-21T09:14:32.175Z,14.32
2022-09-21T09:17:15.155Z,9.50
2022-09-21T09:19:50.582Z,14.70
2022-09-21T09:22:29.096Z,11.00
2022-09-21T09:25:00.752Z,14.48
2022-09-21T09:27:33.917Z,14.30
2022-09-21T09:30:03.643Z,15.45
2022-09-21T09:32:41.710Z,16.30
2022-09-21T09:35:24.544Z,9.55
2022-09-21T09:37:55.042Z,8.45
2022-09-21T09:40:37.048Z,8.55
2022-09-21T09:43:19.006Z,11.45
2022-09-21T09:46:01.600Z,8.98
2022-09-21T09:48:54.181Z,13.05
2022-09-21T09:51:21.206Z,13.57
2022-09-21T09:53:47.897Z,8.73
2022-09-21T09:56:14.932Z,10.55
2022-09-21T09:58:46.493Z,9.88
2022-09-21T10:01:36.997Z,8.55
2022-09-21T10:04:08.002Z,8.57
2022-09-21T10:06:34.929Z,6.97
2022-09-21T10:09:01.572Z,7.93
2022-09-21T10:11:38.513Z,5.65
2022-09-21T10:14:10.765Z,8.75
2022-09-21T10:16:41.806Z,7.47
2022-09-21T10:19:17.594Z,10.20
2022-09-21T10:21:48.769Z,6.78
2022-09-21T10:24:23.585Z,6.53
2022-09-21T10:26:56.832Z,8.07
2022-09-21T10:29:23.419Z,7.47
2022-09-21T10:32:01.207Z,11.20
2022-09-21T10:34:30.827Z,7.47
2022-09-21T10:37:00.937Z,8.60
2022-09-21T10:39:31.128Z,7.97
2022-09-21T10:42:04.484Z,8.23
2022-09-21T10:44:40.437Z,11.05
2022-09-21T10:47:22.528Z,8.95
2022-09-21T10:49:54.032Z,7.25
2022-09-21T10:52:24.278Z,7.25
2022-09-21T10:54:55.332Z,7.28
2022-09-21T10:57:25.640Z,4.22
2022-09-21T10:59:52.352Z,8.00
2022-09-21T11:02:36.024Z,7.90
2022-09-21T11:05:08.035Z,8.52
2022-09-21T11:07:43.545Z,5.95
2022-09-21T11:10:23.092Z,5.82
2022-09-21T11:13:12.652Z,7.97
2022-09-21T11:15:52.252Z,5.93
2022-09-21T11:18:28.591Z,6.40
2022-09-21T11:23:57.089Z,3.72
2022-09-21T11:26:29.146Z,5.90
2022-09-21T11:28:55.831Z,5.10
2022-09-21T11:31:38.750Z,5.68
2022-09-21T11:34:36.052Z,4.80
2022-09-21T11:39:54.350Z,4.32
2022-09-21T11:42:30.263Z,4.20
2022-09-21T11:45:01.445Z,8.63
2022-09-21T11:47:53.383Z,4.10
2022-09-21T11:50:36.792Z,4.80
2022-09-21T11:53:04.365Z,6.82
2022-09-21T11:56:03.172Z,5.45
2022-09-21T11:58:39.757Z,4.03
2022-09-21T12:01:36.852Z,8.95
2022-09-21T12:04:04.466Z,3.17
2022-09-21T12:06:57.947Z,4.85
2022-09-21T12:09:39.723Z,4.55
2022-09-21T12:12:17.026Z,2.50
2022-09-21T12:14:43.561Z,2.88
2022-09-21T12:17:40.609Z,1.85
2022-09-21T12:20:22.441Z,3.25
2022-09-21T12:22:53.485Z,2.83
2022-09-21T12:25:23.666Z,3.28
2022-09-21T12:27:54.333Z,3.33
2022-09-21T12:30:23.247Z,3.42
2022-09-21T12:32:53.198Z,3.90
2022-09-21T12:35:39.412Z,1.83
2022-09-21T12:38:21.374Z,4.32
2022-09-21T12:41:03.172Z,3.00
2022-09-21T12:43:49.236Z,1.30
2022-09-21T12:46:26.612Z,5.03
2022-09-21T12:48:53.782Z,4.30
2022-09-21T12:51:29.650Z,2.25
2022-09-21T12:54:00.621Z,4.13
2022-09-21T12:56:45.204Z,6.80
2022-09-21T12:59:14.726Z,3.97
2022-09-21T13:01:59.062Z,2.78
2022-09-21T13:04:56.479Z,2.33
2022-09-21T13:10:07.660Z,1.70
2022-09-21T13:12:41.031Z,4.65
2022-09-21T13:15:26.975Z,4.45
2022-09-21T13:18:18.831Z,7.00
2022-09-21T13:20:46.271Z,3.25
2022-09-21T13:23:20.447Z,6.35
2022-09-21T13:25:50.504Z,6.93
2022-09-21T13:28:20.166Z,3.20
2022-09-21T13:31:18.485Z,2.33
2022-09-21T13:34:23.792Z,5.38
2022-09-21T13:37:14.816Z,4.70
2022-09-21T13:39:50.218Z,5.13
2022-09-21T13:42:32.189Z,5.33
2022-09-21T13:45:01.132Z,4.00
2022-09-21T13:47:39.129Z,2.88
2022-09-21T13:50:29.646Z,1.48
2022-09-21T13:53:00.114Z,1.90
2022-09-21T13:55:38.354Z,18.08
2022-09-21T13:58:29.900Z,7.10
2022-09-21T14:01:03.018Z,3.38
2022-09-21T14:03:38.446Z,1.95
2022-09-21T14:06:13.861Z,2.23
2022-09-21T14:08:58.126Z,8.50
2022-09-21T14:11:35.613Z,3.65
2022-09-21T14:14:02.272Z,3.10
2022-09-21T14:16:52.035Z,4.03
2022-09-21T14:19:18.897Z,3.97
2022-09-21T14:22:20.745Z,7.53
2022-09-21T14:24:51.261Z,3.00
2022-09-21T14:27:29.001Z,2.78
2022-09-21T14:30:05.158Z,4.22
2022-09-21T14:32:43.381Z,4.78
2022-09-21T14:35:16.680Z,1.60
2022-09-21T14:37:52.119Z,4.43
2022-09-21T14:40:24.708Z,7.17
2022-09-21T14:42:54.603Z,4.13
2022-09-21T14:45:32.557Z,2.15
2022-09-21T14:48:13.526Z,2.90
2022-09-21T14:50:45.744Z,1.45
2022-09-21T14:53:23.180Z,3.05
2022-09-21T14:56:10.298Z,3.40
2022-09-21T14:58:57.631Z,2.45
2022-09-21T15:01:54.413Z,4.15
2022-09-21T15:04:54.488Z,6.10
2022-09-21T15:07:46.275Z,2.50
2022-09-21T15:10:45.683Z,1.92
2022-09-21T15:13:20.328Z,3.63
2022-09-21T15:16:22.295Z,3.38
2022-09-21T15:18:51.379Z,2.20
2022-09-21T15:21:26.393Z,2.97
2022-09-21T15:23:54.108Z,2.58
2022-09-21T15:26:26.786Z,4.32
2022-09-21T15:29:09.300Z,3.67
2022-09-21T15:31:39.669Z,2.63
2022-09-21T15:34:07.943Z,3.10
2022-09-21T15:36:38.407Z,3.90
2022-09-21T15:39:05.588Z,2.75
2022-09-21T15:41:50.656Z,1.98
2022-09-21T15:44:22.876Z,2.13
2022-09-21T15:46:53.316Z,2.85
2022-09-21T15:49:22.001Z,2.00
2022-09-21T15:52:12.970Z,1.10
2022-09-21T15:54:44.996Z,1.50
2022-09-21T15:57:36.408Z,2.28
2022-09-21T16:00:18.020Z,4.18
2022-09-21T16:02:59.052Z,2.40
2022-09-21T16:05:25.749Z,2.15
2022-09-21T16:08:05.938Z,4.70
2022-09-21T16:10:33.531Z,2.75
2022-09-21T16:13:22.651Z,3.38
2022-09-21T16:16:10.259Z,4.32
2022-09-21T16:18:54.468Z,1.27
2022-09-21T16:21:22.022Z,2.08
2022-09-21T16:23:51.477Z,9.15
2022-09-21T16:26:23.496Z,8.18
2022-09-21T16:28:57.031Z,1.52
2022-09-21T16:31:26.768Z,5.38
2022-09-21T16:33:54.405Z,3.75
2022-09-21T16:36:22.261Z,3.15
2022-09-21T16:38:50.346Z,2.33
2022-09-21T16:41:17.073Z,17.88
2022-09-21T16:43:44.599Z,22.05
2022-09-21T16:46:12.094Z,14.75
2022-09-21T16:48:39.915Z,10.68
2022-09-21T16:51:12.656Z,10.07
2022-09-21T16:53:39.189Z,11.48
2022-09-21T16:56:07.055Z,35.35
2022-09-21T16:58:33.594Z,17.20
2022-09-21T17:01:01.273Z,6.22
2022-09-21T17:03:29.217Z,12.70
2022-09-21T17:05:57.310Z,6.88
2022-09-21T17:08:24.597Z,8.07
2022-09-21T17:10:51.196Z,9.30
2022-09-21T17:13:19.258Z,2.85
2022-09-21T17:15:48.089Z,3.83
2022-09-21T17:18:15.094Z,2.72
2022-09-21T17:20:44.115Z,2.53
2022-09-21T17:23:11.535Z,4.18
2022-09-21T17:25:41.464Z,3.45
2022-09-21T17:28:23.421Z,3.88
2022-09-21T17:30:50.005Z,4.45
2022-09-21T17:33:17.887Z,3.45
2022-09-21T17:35:44.690Z,2.85
2022-09-21T17:38:14.390Z,3.47
2022-09-21T17:40:42.577Z,0.80
2022-09-21T17:43:39.840Z,4.60
2022-09-21T17:46:16.238Z,2.38
2022-09-21T17:48:43.111Z,3.05
2022-09-21T17:51:10.450Z,2.95
2022-09-21T17:53:37.499Z,5.30
2022-09-21T17:56:34.705Z,3.78
2022-09-21T17:59:03.129Z,4.05
2022-09-21T18:01:34.782Z,11.38
2022-09-21T18:04:02.150Z,11.95
2022-09-21T18:06:29.452Z,11.15
2022-09-21T18:08:56.561Z,14.70
2022-09-21T18:11:33.376Z,6.47
2022-09-21T18:14:13.106Z,8.45
2022-09-21T18:17:03.269Z,7.40
2022-09-21T18:20:00.440Z,4.53
2022-09-21T18:22:54.143Z,4.88
2022-09-21T18:25:28.221Z,5.45
2022-09-21T18:27:58.664Z,4.07
2022-09-21T18:30:26.281Z,4.97
2022-09-21T18:33:17.127Z,5.22
2022-09-21T18:35:54.445Z,5.95
2022-09-21T18:38:32.233Z,4.88
2022-09-21T18:40:59.402Z,7.20
2022-09-21T18:43:59.088Z,5.03
2022-09-21T18:46:35.209Z,5.53
2022-09-21T18:51:40.674Z,3.95
2022-09-21T18:54:15.061Z,3.85
2022-09-21T18:56:41.737Z,5.05
2022-09-21T18:59:11.740Z,7.65
2022-09-21T19:01:38.877Z,4.82
2022-09-21T19:04:05.925Z,3.30
2022-09-21T19:07:03.062Z,6.88
2022-09-21T19:09:45.910Z,5.30
2022-09-21T19:12:26.314Z,6.20
2022-09-21T19:15:12.317Z,4.60
2022-09-21T19:18:09.660Z,6.65
2022-09-21T19:20:56.583Z,6.75
2022-09-21T19:26:20.081Z,4.50
2022-09-21T19:29:03.025Z,8.05
2022-09-21T19:31:29.779Z,3.95
2022-09-21T19:33:56.571Z,5.75
2022-09-21T19:36:24.306Z,3.22
2022-09-21T19:38:51.167Z,5.85
2022-09-21T19:41:17.756Z,1.92
2022-09-21T19:43:59.866Z,2.70
2022-09-21T19:46:41.646Z,8.55
2022-09-21T19:49:18.484Z,11.60
2022-09-21T19:51:48.559Z,6.00
2022-09-21T19:54:34.610Z,3.63
2022-09-21T19:57:16.836Z,9.10
2022-09-21T19:59:43.715Z,6.43
2022-09-21T20:02:29.279Z,2.92
2022-09-21T20:04:58.351Z,3.25
2022-09-21T20:07:47.096Z,4.78
2022-09-21T20:10:31.043Z,3.35
2022-09-21T20:13:31.228Z,6.68
2022-09-21T20:16:18.875Z,7.35
2022-09-21T20:18:56.236Z,6.22
2022-09-21T20:21:26.126Z,4.18
2022-09-21T20:23:58.756Z,7.50
2022-09-21T20:26:27.572Z,6.78
2022-09-21T20:28:54.899Z,7.25
2022-09-21T20:31:23.499Z,5.68
2022-09-21T20:33:50.906Z,11.48
2022-09-21T20:36:17.543Z,6.70
2022-09-21T20:38:44.508Z,6.63
2022-09-21T20:41:13.033Z,6.80
2022-09-21T20:43:39.859Z,4.88
2022-09-21T20:46:06.625Z,5.72
2022-09-21T20:48:33.279Z,5.07
2022-09-21T20:51:01.716Z,9.02
2022-09-21T20:53:28.430Z,2.28
2022-09-21T20:55:57.127Z,4.00
2022-09-21T20:58:25.699Z,5.07
2022-09-21T21:00:57.931Z,8.10
2022-09-21T21:03:25.468Z,7.68
2022-09-21T21:05:52.076Z,9.38
2022-09-21T21:08:18.779Z,3.60
2022-09-21T21:10:47.269Z,5.03
2022-09-21T21:13:13.818Z,5.20
2022-09-21T21:15:40.376Z,6.97
2022-09-21T21:18:11.450Z,9.20
2022-09-21T21:20:38.474Z,3.20
2022-09-21T21:23:08.008Z,3.70
2022-09-21T21:25:35.209Z,7.47
2022-09-21T21:28:05.411Z,6.88
2022-09-21T21:30:31.969Z,5.43
2022-09-21T21:32:58.649Z,5.80
2022-09-21T21:35:25.951Z,7.82
2022-09-21T21:37:52.551Z,5.63
2022-09-21T21:40:20.683Z,7.28
2022-09-21T21:42:47.388Z,5.32
2022-09-21T21:45:14.029Z,9.32
2022-09-21T21:47:41.648Z,7.18
2022-09-21T21:50:09.867Z,7.85
2022-09-21T21:52:37.215Z,7.45
2022-09-21T21:55:04.765Z,11.77
2022-09-21T21:57:31.430Z,8.98
2022-09-21T21:59:58.035Z,6.35
2022-09-21T22:02:24.736Z,5.70
2022-09-21T22:04:51.419Z,5.25
2022-09-21T22:07:18.038Z,7.38
2022-09-21T22:09:44.645Z,6.43
2022-09-21T22:12:12.021Z,3.78
2022-09-21T22:14:38.820Z,6.55
2022-09-21T22:17:05.463Z,6.15
2022-09-21T22:19:33.025Z,3.92
2022-09-21T22:21:59.644Z,5.68
2022-09-21T22:24:26.267Z,6.43
2022-09-21T22:26:52.840Z,4.85
2022-09-21T22:29:19.438Z,5.88
2022-09-21T22:31:48.369Z,8.18
2022-09-21T22:34:15.682Z,6.10
2022-09-21T22:36:44.069Z,11.15
2022-09-21T22:39:11.331Z,5.97
2022-09-21T22:41:39.878Z,4.78
2022-09-21T22:44:07.221Z,6.15
2022-09-21T22:46:34.675Z,7.88
2022-09-21T22:49:01.428Z,8.70
2022-09-21T22:51:29.113Z,7.40
2022-09-21T22:53:56.547Z,6.10
2022-09-21T22:56:26.776Z,7.18
2022-09-21T22:58:56.632Z,6.40
2022-09-21T23:01:27.241Z,6.75
2022-09-21T23:04:01.584Z,9.45
2022-09-21T23:06:32.584Z,9.13
2022-09-21T23:09:00.404Z,12.82
2022-09-21T23:11:29.508Z,7.88
2022-09-21T23:13:57.632Z,7.20
2022-09-21T23:16:26.302Z,5.88
2022-09-21T23:18:53.716Z,5.10
2022-09-21T23:21:23.676Z,6.32
2022-09-21T23:23:54.767Z,16.00
2022-09-21T23:26:24.174Z,9.82
2022-09-21T23:28:53.497Z,7.13
2022-09-21T23:31:20.662Z,8.80
2022-09-21T23:33:50.064Z,6.85
2022-09-21T23:36:20.358Z,6.53
2022-09-21T23:38:48.639Z,5.70
2022-09-21T23:41:19.091Z,9.25
2022-09-21T23:43:46.497Z,7.30
2022-09-21T23:46:15.749Z,5.75
2022-09-21T23:48:43.782Z,7.68
2022-09-21T23:51:11.250Z,6.45
2022-09-21T23:53:37.872Z,4.93
2022-09-21T23:56:06.220Z,4.82
2022-09-21T23:58:33.364Z,8.02
